createdAt,value
2022-07-30T00:02:46.453Z,101901.44
2022-07-30T00:07:54.591Z,101907.66
2022-07-30T00:12:57.773Z,101904.50
2022-07-30T00:18:00.589Z,101899.09
2022-07-30T00:23:10.206Z,101903.38
2022-07-30T00:28:13.204Z,101892.00
2022-07-30T00:33:16.079Z,101891.50
2022-07-30T00:38:24.209Z,101890.28
2022-07-30T00:43:27.137Z,101881.63
2022-07-30T00:48:29.897Z,101878.50
2022-07-30T00:53:38.534Z,101881.94
2022-07-30T00:58:41.372Z,101875.78
2022-07-30T01:03:44.148Z,101869.31
2022-07-30T01:08:52.417Z,101870.00
2022-07-30T01:13:55.321Z,101860.75
2022-07-30T01:19:00.277Z,101854.88
2022-07-30T01:24:26.936Z,101858.06
2022-07-30T01:29:37.107Z,101857.47
2022-07-30T01:34:41.190Z,101859.22
2022-07-30T01:39:45.045Z,101854.41
2022-07-30T01:50:16.549Z,101851.88
2022-07-30T01:55:25.669Z,101845.41
2022-07-30T02:00:31.877Z,101842.97
2022-07-30T02:05:44.041Z,101838.16
2022-07-30T02:10:50.283Z,101835.62
2022-07-30T02:15:57.431Z,101832.72
2022-07-30T02:21:08.364Z,101835.69
2022-07-30T02:26:18.262Z,101837.00
2022-07-30T02:31:24.337Z,101842.12
2022-07-30T02:36:34.593Z,101855.47
2022-07-30T02:41:41.236Z,101849.34
2022-07-30T02:46:44.771Z,101850.00
2022-07-30T02:51:53.672Z,101862.78
2022-07-30T02:56:58.732Z,101858.16
2022-07-30T03:02:04.709Z,101860.34
2022-07-30T03:07:13.889Z,101848.78
2022-07-30T03:12:17.778Z,101854.94
2022-07-30T03:17:23.401Z,101857.75
2022-07-30T03:22:36.447Z,101861.16
2022-07-30T03:27:40.258Z,101859.72
2022-07-30T03:32:44.184Z,101866.94
2022-07-30T03:37:52.822Z,101870.34
2022-07-30T03:42:56.617Z,101861.91
2022-07-30T03:48:00.183Z,101867.84
2022-07-30T03:53:10.568Z,101868.28
2022-07-30T03:58:13.385Z,101872.94
2022-07-30T04:03:26.023Z,101867.97
2022-07-30T04:08:34.419Z,101865.41
2022-07-30T04:13:37.171Z,101861.94
2022-07-30T04:18:44.058Z,101873.13
2022-07-30T04:24:04.714Z,101872.03
2022-07-30T04:39:43.004Z,101870.41
2022-07-30T04:44:45.737Z,101866.50
2022-07-30T04:49:50.364Z,101867.22
2022-07-30T05:00:19.594Z,101865.19
2022-07-30T05:05:22.914Z,101859.44
2022-07-30T05:10:26.217Z,101862.38
2022-07-30T05:15:37.258Z,101867.16
2022-07-30T05:20:40.573Z,101870.91
2022-07-30T05:25:43.288Z,101880.16
2022-07-30T05:30:51.377Z,101875.66
2022-07-30T05:35:54.697Z,101881.53
2022-07-30T05:40:57.465Z,101879.53
2022-07-30T05:46:05.507Z,101880.28
2022-07-30T05:51:08.254Z,101882.72
2022-07-30T05:56:11.927Z,101876.53
2022-07-30T06:01:20.133Z,101872.22
2022-07-30T06:06:23.504Z,101873.81
2022-07-30T06:11:26.310Z,101865.59
2022-07-30T06:16:34.341Z,101870.06
2022-07-30T06:22:01.481Z,101873.31
2022-07-30T06:27:00.326Z,101871.94
2022-07-30T06:32:08.604Z,101875.09
2022-07-30T06:37:11.445Z,101873.75
2022-07-30T06:42:14.158Z,101876.44
2022-07-30T06:47:26.155Z,101874.72
2022-07-30T06:52:28.921Z,101871.31
2022-07-30T06:57:31.724Z,101877.50
2022-07-30T07:02:44.516Z,101876.16
2022-07-30T07:07:58.191Z,101876.44
2022-07-30T07:13:01.307Z,101868.91
2022-07-30T07:18:09.412Z,101868.34
2022-07-30T07:23:12.683Z,101866.06
2022-07-30T07:28:16.556Z,101874.28
2022-07-30T07:33:24.593Z,101867.78
2022-07-30T07:38:27.432Z,101871.81
2022-07-30T07:43:30.147Z,101863.84
2022-07-30T07:48:38.150Z,101868.34
2022-07-30T07:58:59.509Z,101869.94
2022-07-30T08:04:03.493Z,101867.69
2022-07-30T08:09:13.267Z,101869.88
2022-07-30T08:14:21.268Z,101867.69
2022-07-30T08:19:23.971Z,101864.66
2022-07-30T08:24:27.047Z,101863.28
2022-07-30T08:29:35.579Z,101865.16
2022-07-30T08:34:38.326Z,101858.66
2022-07-30T08:44:59.726Z,101860.25
2022-07-30T08:50:03.626Z,101862.16
2022-07-30T08:55:07.309Z,101863.25
2022-07-30T09:00:16.676Z,101869.59
2022-07-30T09:05:19.430Z,101866.44
2022-07-30T09:10:25.126Z,101855.50
2022-07-30T09:15:33.289Z,101851.94
2022-07-30T09:20:37.278Z,101858.41
2022-07-30T09:25:41.846Z,101864.53
2022-07-30T09:30:54.481Z,101861.13
2022-07-30T09:35:57.730Z,101856.56
2022-07-30T09:46:19.529Z,101852.78
2022-07-30T09:51:55.739Z,101863.25
2022-07-30T09:57:25.641Z,101849.09
2022-07-30T10:07:56.228Z,101851.84
2022-07-30T10:13:04.518Z,101852.28
2022-07-30T10:18:08.441Z,101854.47
2022-07-30T10:23:19.326Z,101852.19
2022-07-30T10:28:24.623Z,101861.25
2022-07-30T10:33:36.629Z,101861.69
2022-07-30T10:38:52.484Z,101854.84
2022-07-30T10:44:23.316Z,101868.78
2022-07-30T10:49:26.165Z,101868.00
2022-07-30T11:00:30.970Z,101846.84
2022-07-30T11:05:45.451Z,101852.28
2022-07-30T11:16:07.485Z,101853.75
2022-07-30T11:21:21.491Z,101857.78
2022-07-30T11:26:54.160Z,101859.34
2022-07-30T11:32:27.163Z,101859.78
2022-07-30T11:37:32.063Z,101853.75
2022-07-30T11:42:37.650Z,101852.66
2022-07-30T11:47:47.316Z,101844.22
2022-07-30T11:52:50.706Z,101850.66
2022-07-30T11:57:53.779Z,101859.88
2022-07-30T12:03:04.144Z,101857.41
2022-07-30T12:08:07.732Z,101862.06
2022-07-30T12:13:13.174Z,101852.78
2022-07-30T12:18:27.033Z,101857.28
2022-07-30T12:23:31.079Z,101852.44
2022-07-30T12:28:36.657Z,101866.69
2022-07-30T12:38:58.898Z,101856.72
2022-07-30T12:44:01.613Z,101865.16
2022-07-30T12:49:21.191Z,101864.75
2022-07-30T12:54:30.825Z,101861.28
2022-07-30T12:59:34.330Z,101853.66
2022-07-30T13:04:40.034Z,101853.97
2022-07-30T13:10:14.717Z,101843.22
2022-07-30T13:15:21.070Z,101850.19
2022-07-30T13:20:23.876Z,101841.62
2022-07-30T13:25:38.724Z,101838.31
2022-07-30T13:30:43.484Z,101837.00
2022-07-30T13:35:48.793Z,101843.31
2022-07-30T13:41:01.914Z,101835.53
2022-07-30T13:46:06.197Z,101833.87
2022-07-30T13:51:08.913Z,101834.22
2022-07-30T13:56:19.785Z,101831.41
2022-07-30T14:01:23.001Z,101832.09
2022-07-30T14:06:25.862Z,101834.91
2022-07-30T14:11:33.912Z,101830.75
2022-07-30T14:16:45.202Z,101827.75
2022-07-30T14:27:07.033Z,101811.69
2022-07-30T14:32:09.862Z,101819.13
2022-07-30T14:37:14.439Z,101813.50
2022-07-30T14:42:22.729Z,101811.50
2022-07-30T14:47:25.621Z,101810.03
2022-07-30T14:52:28.386Z,101800.72
2022-07-30T14:57:36.808Z,101805.19
2022-07-30T15:02:39.850Z,101795.72
2022-07-30T15:07:42.589Z,101795.75
2022-07-30T15:12:50.596Z,101800.00
2022-07-30T15:17:53.640Z,101797.66
2022-07-30T15:22:56.412Z,101800.41
2022-07-30T15:28:04.861Z,101799.87
2022-07-30T15:33:07.907Z,101787.31
2022-07-30T15:38:11.391Z,101787.31
2022-07-30T15:43:19.444Z,101793.75
2022-07-30T15:48:27.088Z,101787.59
2022-07-30T15:53:30.947Z,101792.84
2022-07-30T16:03:52.294Z,101787.53
2022-07-30T16:08:55.041Z,101793.22
2022-07-30T16:13:57.998Z,101792.06
2022-07-30T16:24:24.645Z,101788.84
2022-07-30T16:29:27.645Z,101799.78
2022-07-30T16:34:30.449Z,101790.91
2022-07-30T16:39:38.522Z,101796.88
2022-07-30T16:44:41.288Z,101799.31
2022-07-30T16:49:44.151Z,101802.66
2022-07-30T16:54:52.227Z,101808.12
2022-07-30T16:59:54.989Z,101802.34
2022-07-30T17:04:57.716Z,101807.13
2022-07-30T17:10:06.824Z,101794.84
2022-07-30T17:15:14.052Z,101795.16
2022-07-30T17:20:17.667Z,101800.56
2022-07-30T17:25:26.584Z,101794.09
2022-07-30T17:30:30.181Z,101800.09
2022-07-30T17:35:34.224Z,101795.69
2022-07-30T17:40:42.482Z,101800.47
2022-07-30T17:45:45.220Z,101805.81
2022-07-30T17:50:47.957Z,101803.34
2022-07-30T17:55:57.586Z,101806.06
2022-07-30T18:01:00.985Z,101807.47
2022-07-30T18:06:03.867Z,101807.59
2022-07-30T18:11:13.841Z,101811.84
2022-07-30T18:16:16.775Z,101809.75
2022-07-30T18:21:19.536Z,101805.69
2022-07-30T18:26:27.622Z,101807.34
2022-07-30T18:31:30.518Z,101818.16
2022-07-30T18:36:33.232Z,101818.88
2022-07-30T18:41:41.341Z,101822.03
2022-07-30T18:46:44.066Z,101830.97
2022-07-30T18:51:46.848Z,101828.78
2022-07-30T19:02:13.829Z,101835.94
2022-07-30T19:07:16.609Z,101843.09
2022-07-30T19:12:19.385Z,101836.87
2022-07-30T19:22:46.101Z,101838.66
2022-07-30T19:27:48.932Z,101838.19
2022-07-30T19:32:51.915Z,101840.28
2022-07-30T19:38:00.017Z,101846.53
2022-07-30T19:43:09.391Z,101843.87
2022-07-30T19:48:13.066Z,101843.37
2022-07-30T19:53:21.187Z,101843.75
2022-07-30T19:58:24.985Z,101857.16
2022-07-30T20:03:31.644Z,101859.16
2022-07-30T20:08:40.137Z,101857.28
2022-07-30T20:13:44.551Z,101860.69
2022-07-30T20:18:48.366Z,101859.63
2022-07-30T20:29:19.436Z,101848.00
2022-07-30T20:34:40.852Z,101848.88
2022-07-30T20:39:43.589Z,101857.84
2022-07-30T20:44:51.637Z,101852.75
2022-07-30T20:49:54.590Z,101854.22
2022-07-30T20:54:57.774Z,101855.12
2022-07-30T21:00:07.305Z,101851.94
2022-07-30T21:10:29.698Z,101850.09
2022-07-30T21:15:33.154Z,101850.41
2022-07-30T21:20:35.861Z,101845.28
2022-07-30T21:26:01.053Z,101851.47
2022-07-30T21:31:07.182Z,101855.12
2022-07-30T21:36:11.136Z,101852.38
2022-07-30T21:41:19.243Z,101850.22
2022-07-30T21:46:41.926Z,101851.72
2022-07-30T21:51:46.004Z,101844.06
2022-07-30T21:56:54.099Z,101852.72
2022-07-30T22:02:00.951Z,101856.44
2022-07-30T22:07:04.205Z,101852.47
2022-07-30T22:17:37.249Z,101849.00
2022-07-30T22:22:59.294Z,101850.56
2022-07-30T22:28:07.335Z,101847.22
2022-07-30T22:33:13.148Z,101842.19
2022-07-30T22:38:16.674Z,101835.12
2022-07-30T22:43:35.491Z,101830.59
2022-07-30T22:48:44.024Z,101827.03
2022-07-30T22:59:15.026Z,101815.31
2022-07-30T23:04:17.937Z,101809.91
2022-07-30T23:09:21.041Z,101815.75
2022-07-30T23:12:28.380Z,101853.81
2022-07-30T23:12:30.760Z,101815.78
2022-07-30T23:14:29.149Z,101804.00
2022-07-30T23:19:32.238Z,101799.31
2022-07-30T23:24:34.980Z,101796.44
2022-07-30T23:35:01.775Z,101794.59
2022-07-30T23:40:04.924Z,101803.28
2022-07-30T23:45:08.285Z,101795.09
2022-07-30T23:50:18.058Z,101796.88
2022-07-30T23:55:21.145Z,101809.44
